createdAt,value
2023-05-01T00:00:19.838Z,100920.03
2023-05-01T00:01:21.626Z,100920.84
2023-05-01T00:02:24.235Z,100920.59
2023-05-01T00:03:25.961Z,100926.84
2023-05-01T00:04:30.227Z,100918.66
2023-05-01T00:05:31.775Z,100925.94
2023-05-01T00:06:34.416Z,100925.22
2023-05-01T00:07:36.047Z,100919.44
2023-05-01T00:08:38.592Z,100918.38
2023-05-01T00:09:40.092Z,100923.91
2023-05-01T00:10:42.951Z,100917.00
2023-05-01T00:11:44.564Z,100915.88
2023-05-01T00:12:46.998Z,100918.53
2023-05-01T00:13:48.510Z,100909.84
2023-05-01T00:14:51.313Z,100913.38
2023-05-01T00:15:53.990Z,100911.09
2023-05-01T00:16:56.772Z,100910.28
2023-05-01T00:17:58.777Z,100907.69
2023-05-01T00:19:01.312Z,100908.56
2023-05-01T00:20:05.489Z,100909.25
2023-05-01T00:21:07.955Z,100904.72
2023-05-01T00:22:09.520Z,100904.81
2023-05-01T00:23:12.471Z,100909.19
2023-05-01T00:24:14.155Z,100912.00
2023-05-01T00:25:16.617Z,100910.75
2023-05-01T00:26:18.135Z,100918.50
2023-05-01T00:27:20.612Z,100915.09
2023-05-01T00:28:22.148Z,100910.72
2023-05-01T00:29:24.687Z,100907.78
2023-05-01T00:30:27.636Z,100908.47
2023-05-01T00:31:30.175Z,100895.09
2023-05-01T00:32:31.726Z,100903.50
2023-05-01T00:33:34.439Z,100904.19
2023-05-01T00:34:35.978Z,100897.44
2023-05-01T00:35:39.772Z,100897.84
2023-05-01T00:36:41.485Z,100899.03
2023-05-01T00:37:44.157Z,100903.97
2023-05-01T00:38:46.376Z,100903.44
2023-05-01T00:39:48.806Z,100901.44
2023-05-01T00:40:50.797Z,100895.56
2023-05-01T00:41:54.853Z,100900.44
2023-05-01T00:42:56.625Z,100888.56
2023-05-01T00:43:59.587Z,100891.63
2023-05-01T00:45:02.109Z,100892.13
2023-05-01T00:46:04.798Z,100899.28
2023-05-01T00:47:06.443Z,100892.84
2023-05-01T00:48:10.907Z,100888.84
2023-05-01T00:49:12.790Z,100889.69
2023-05-01T00:50:15.580Z,100878.53
2023-05-01T00:51:19.908Z,100884.91
2023-05-01T00:52:22.397Z,100883.53
2023-05-01T00:53:24.248Z,100877.75
2023-05-01T00:54:28.320Z,100874.53
2023-05-01T00:55:31.376Z,100869.63
2023-05-01T00:56:33.901Z,100873.53
2023-05-01T00:57:35.922Z,100872.19
2023-05-01T00:58:38.995Z,100884.78
2023-05-01T00:59:41.241Z,100871.47
2023-05-01T01:00:43.943Z,100873.84
2023-05-01T01:01:45.597Z,100872.59
2023-05-01T01:02:48.183Z,100862.75
2023-05-01T01:03:51.355Z,100865.44
2023-05-01T01:04:54.385Z,100872.72
2023-05-01T01:06:00.343Z,100864.97
2023-05-01T01:07:11.393Z,100866.72
2023-05-01T01:08:21.885Z,100861.91
2023-05-01T01:09:33.142Z,100860.94
2023-05-01T01:10:41.055Z,100857.97
2023-05-01T01:11:54.402Z,100854.91
2023-05-01T01:13:04.605Z,100857.09
2023-05-01T01:14:11.688Z,100849.19
2023-05-01T01:15:19.102Z,100857.31
2023-05-01T01:16:29.045Z,100854.38
2023-05-01T01:17:35.090Z,100854.50
2023-05-01T01:18:42.453Z,100860.59
2023-05-01T01:20:08.045Z,100859.19
2023-05-01T01:21:18.083Z,100858.50
2023-05-01T01:22:24.388Z,100855.22
2023-05-01T01:24:04.136Z,100854.13
2023-05-01T01:25:33.623Z,100858.69
2023-05-01T01:27:09.583Z,100856.38
2023-05-01T01:28:24.630Z,100855.19
2023-05-01T01:29:57.446Z,100856.72
2023-05-01T01:31:12.402Z,100860.81
2023-05-01T01:32:45.513Z,100853.41
2023-05-01T01:33:58.946Z,100845.16
2023-05-01T01:35:05.772Z,100841.31
2023-05-01T01:36:15.239Z,100846.63
2023-05-01T01:37:21.923Z,100841.81
2023-05-01T01:38:29.430Z,100843.63
2023-05-01T01:39:47.015Z,100844.34
2023-05-01T01:40:56.191Z,100840.69
2023-05-01T01:42:00.430Z,100839.97
2023-05-01T01:43:05.461Z,100837.66
2023-05-01T01:44:13.201Z,100834.28
2023-05-01T01:45:20.615Z,100833.81
2023-05-01T01:46:24.205Z,100831.13
2023-05-01T01:47:31.699Z,100834.84
2023-05-01T01:48:36.189Z,100833.44
2023-05-01T01:49:46.338Z,100839.09
2023-05-01T01:50:49.045Z,100830.00
2023-05-01T01:51:53.676Z,100826.09
2023-05-01T01:52:58.948Z,100826.91
2023-05-01T01:54:03.043Z,100827.00
2023-05-01T01:55:07.601Z,100822.00
2023-05-01T01:56:11.371Z,100819.59
2023-05-01T01:57:17.154Z,100821.16
2023-05-01T01:58:21.517Z,100823.84
2023-05-01T01:59:26.458Z,100816.78
2023-05-01T02:00:29.025Z,100820.25
2023-05-01T02:01:32.007Z,100823.50
2023-05-01T02:02:33.736Z,100813.34
2023-05-01T02:03:38.682Z,100810.31
2023-05-01T02:04:42.986Z,100806.09
2023-05-01T02:05:47.756Z,100808.25
2023-05-01T02:06:50.020Z,100801.53
2023-05-01T02:07:53.915Z,100812.09
2023-05-01T02:08:57.067Z,100810.09
2023-05-01T02:10:00.497Z,100806.38
2023-05-01T02:11:03.585Z,100808.69
2023-05-01T02:12:08.710Z,100814.56
2023-05-01T02:13:12.161Z,100807.66
2023-05-01T02:14:16.269Z,100807.56
2023-05-01T02:15:19.022Z,100808.22
2023-05-01T02:16:25.347Z,100807.91
2023-05-01T02:17:28.714Z,100810.53
2023-05-01T02:18:32.323Z,100796.44
2023-05-01T02:19:34.784Z,100803.25
2023-05-01T02:20:38.757Z,100800.38
2023-05-01T02:21:42.705Z,100790.34
2023-05-01T02:22:47.414Z,100798.59
2023-05-01T02:23:49.050Z,100797.41
2023-05-01T02:24:53.309Z,100791.88
2023-05-01T02:25:57.302Z,100790.38
2023-05-01T02:27:06.436Z,100792.47
2023-05-01T02:28:12.379Z,100792.25
2023-05-01T02:29:14.857Z,100789.03
2023-05-01T02:30:18.772Z,100787.53
2023-05-01T02:31:22.027Z,100785.19
2023-05-01T02:32:23.766Z,100777.38
2023-05-01T02:33:26.685Z,100770.63
2023-05-01T02:34:28.171Z,100777.81
2023-05-01T02:35:30.599Z,100774.94
2023-05-01T02:36:33.457Z,100782.22
2023-05-01T02:37:35.916Z,100784.41
2023-05-01T02:38:37.454Z,100778.41
2023-05-01T02:39:40.687Z,100773.34
2023-05-01T02:40:45.515Z,100773.88
2023-05-01T02:41:49.740Z,100772.03
2023-05-01T02:42:52.467Z,100769.88
2023-05-01T02:44:01.556Z,100773.84
2023-05-01T02:45:06.599Z,100766.34
2023-05-01T02:46:11.286Z,100774.50
2023-05-01T02:47:16.724Z,100771.69
2023-05-01T02:48:22.930Z,100773.41
2023-05-01T02:49:24.881Z,100767.19
2023-05-01T02:50:27.962Z,100769.19
2023-05-01T02:51:31.779Z,100764.69
2023-05-01T02:52:36.067Z,100764.19
2023-05-01T02:53:39.630Z,100761.47
2023-05-01T02:54:43.464Z,100759.22
2023-05-01T02:55:45.156Z,100746.34
2023-05-01T02:56:47.616Z,100752.91
2023-05-01T02:57:50.939Z,100754.72
2023-05-01T02:58:53.433Z,100754.41
2023-05-01T02:59:55.083Z,100752.88
2023-05-01T03:00:57.812Z,100745.75
2023-05-01T03:01:59.904Z,100751.59
2023-05-01T03:03:02.367Z,100746.28
2023-05-01T03:04:04.352Z,100744.22
2023-05-01T03:05:07.808Z,100734.63
2023-05-01T03:06:09.507Z,100739.25
2023-05-01T03:07:12.064Z,100740.56
2023-05-01T03:08:15.113Z,100735.06
2023-05-01T03:09:17.637Z,100733.91
2023-05-01T03:10:19.349Z,100734.84
2023-05-01T03:11:22.275Z,100740.56
2023-05-01T03:12:23.938Z,100735.19
2023-05-01T03:13:26.343Z,100732.50
2023-05-01T03:14:28.524Z,100726.50
2023-05-01T03:15:30.996Z,100728.50
2023-05-01T03:16:32.528Z,100728.06
2023-05-01T03:17:35.210Z,100720.66
2023-05-01T03:18:36.666Z,100722.56
2023-05-01T03:19:39.081Z,100721.84
2023-05-01T03:20:40.767Z,100718.78
2023-05-01T03:21:43.163Z,100723.19
2023-05-01T03:22:44.725Z,100716.34
2023-05-01T03:23:49.034Z,100726.47
2023-05-01T03:24:50.982Z,100717.53
2023-05-01T03:25:54.667Z,100723.22
2023-05-01T03:26:56.194Z,100721.53
2023-05-01T03:27:58.723Z,100720.31
2023-05-01T03:29:00.240Z,100721.03
2023-05-01T03:30:21.687Z,100718.81
2023-05-01T03:31:42.732Z,100723.53
2023-05-01T03:33:03.129Z,100719.28
2023-05-01T03:34:26.793Z,100717.50
2023-05-01T03:35:48.753Z,100713.94
2023-05-01T03:37:11.964Z,100710.84
2023-05-01T03:38:33.822Z,100712.25
2023-05-01T03:39:58.123Z,100717.16
2023-05-01T03:41:21.465Z,100719.22
2023-05-01T03:42:43.380Z,100707.66
2023-05-01T03:44:06.139Z,100709.03
2023-05-01T03:45:28.268Z,100708.88
2023-05-01T03:46:51.079Z,100708.75
2023-05-01T03:48:13.734Z,100709.56
2023-05-01T03:49:36.710Z,100714.00
2023-05-01T03:50:58.512Z,100711.34
2023-05-01T03:52:21.247Z,100709.59
2023-05-01T03:53:43.249Z,100709.84
2023-05-01T03:55:09.499Z,100705.28
2023-05-01T03:56:35.523Z,100712.91
2023-05-01T03:57:58.699Z,100710.59
2023-05-01T03:59:20.568Z,100713.66
2023-05-01T04:00:43.500Z,100706.81
2023-05-01T04:02:05.404Z,100704.16
2023-05-01T04:03:28.561Z,100700.75
2023-05-01T04:04:50.528Z,100703.28
2023-05-01T04:06:13.826Z,100712.56
2023-05-01T04:07:35.844Z,100702.38
2023-05-01T04:08:58.596Z,100705.53
2023-05-01T04:10:21.744Z,100704.84
2023-05-01T04:11:44.578Z,100705.28
2023-05-01T04:13:06.935Z,100711.75
2023-05-01T04:14:29.915Z,100706.72
2023-05-01T04:15:52.951Z,100707.19
2023-05-01T04:17:15.798Z,100707.44
2023-05-01T04:18:37.615Z,100703.91
2023-05-01T04:20:00.974Z,100703.66
2023-05-01T04:21:23.939Z,100702.91
2023-05-01T04:22:45.783Z,100697.69
2023-05-01T04:24:08.574Z,100700.19
2023-05-01T04:25:32.647Z,100696.69
2023-05-01T04:26:55.433Z,100695.50
2023-05-01T04:28:17.245Z,100692.34
2023-05-01T04:29:40.859Z,100697.19
2023-05-01T04:31:03.959Z,100698.72
2023-05-01T04:32:27.151Z,100702.94
2023-05-01T04:33:49.182Z,100699.31
2023-05-01T04:35:12.225Z,100702.84
2023-05-01T04:36:34.975Z,100698.63
2023-05-01T04:37:57.763Z,100697.09
2023-05-01T04:39:20.566Z,100697.91
2023-05-01T04:40:44.648Z,100698.34
2023-05-01T04:42:07.482Z,100689.75
2023-05-01T04:43:29.285Z,100683.88
2023-05-01T04:44:52.068Z,100687.25
2023-05-01T04:46:14.918Z,100690.53
2023-05-01T04:47:37.806Z,100681.84
2023-05-01T04:48:59.655Z,100681.75
2023-05-01T04:50:22.656Z,100681.19
2023-05-01T04:51:45.832Z,100684.31
2023-05-01T04:53:08.683Z,100684.25
2023-05-01T04:54:31.735Z,100683.00
2023-05-01T04:55:55.092Z,100676.97
2023-05-01T04:57:17.906Z,100677.63
2023-05-01T04:58:40.743Z,100677.50
2023-05-01T05:00:04.200Z,100676.47
2023-05-01T05:01:27.043Z,100685.47
2023-05-01T05:02:49.011Z,100679.56
2023-05-01T05:04:12.549Z,100686.19
2023-05-01T05:05:35.251Z,100686.63
2023-05-01T05:06:57.995Z,100691.47
2023-05-01T05:08:19.895Z,100688.38
2023-05-01T05:09:42.737Z,100686.63
2023-05-01T05:11:05.889Z,100683.59
2023-05-01T05:12:28.907Z,100686.44
2023-05-01T05:13:51.823Z,100684.00
2023-05-01T05:15:14.616Z,100685.97
2023-05-01T05:16:36.559Z,100690.56
2023-05-01T05:17:59.427Z,100686.38
2023-05-01T05:19:22.319Z,100685.91
2023-05-01T05:20:44.428Z,100678.75
2023-05-01T05:22:07.820Z,100687.22
2023-05-01T05:23:29.648Z,100682.53
2023-05-01T05:24:54.892Z,100679.25
2023-05-01T05:26:19.269Z,100682.59
2023-05-01T05:27:41.075Z,100680.13
2023-05-01T05:29:04.925Z,100676.78
2023-05-01T05:30:27.260Z,100681.59
2023-05-01T05:31:50.191Z,100683.94
2023-05-01T05:33:12.129Z,100683.53
2023-05-01T05:34:35.013Z,100681.22
2023-05-01T05:35:59.367Z,100670.13
2023-05-01T05:37:22.137Z,100677.44
2023-05-01T05:38:45.124Z,100675.97
2023-05-01T05:40:09.611Z,100670.50
2023-05-01T05:41:33.737Z,100675.41
2023-05-01T05:42:57.083Z,100671.94
2023-05-01T05:44:19.831Z,100672.31
2023-05-01T05:45:42.661Z,100665.03
2023-05-01T05:47:04.632Z,100674.28
2023-05-01T05:48:27.944Z,100666.34
2023-05-01T05:49:50.778Z,100666.63
2023-05-01T05:51:13.592Z,100663.75
2023-05-01T05:52:35.477Z,100665.19
2023-05-01T05:53:58.255Z,100665.16
2023-05-01T05:55:20.086Z,100667.28
2023-05-01T05:56:44.648Z,100664.66
2023-05-01T05:58:06.792Z,100662.69
2023-05-01T05:59:29.777Z,100668.75
2023-05-01T06:00:55.609Z,100660.97
2023-05-01T06:02:17.465Z,100662.41
2023-05-01T06:03:40.511Z,100664.22
2023-05-01T06:05:03.479Z,100670.66
2023-05-01T06:06:27.645Z,100658.72
2023-05-01T06:07:51.098Z,100660.28
2023-05-01T06:09:14.734Z,100658.78
2023-05-01T06:10:39.495Z,100655.38
2023-05-01T06:12:05.941Z,100658.25
2023-05-01T06:13:28.714Z,100652.91
2023-05-01T06:14:52.263Z,100656.69
2023-05-01T06:16:16.042Z,100655.56
2023-05-01T06:17:38.036Z,100654.00
2023-05-01T06:19:00.832Z,100651.66
2023-05-01T06:20:23.256Z,100657.94
2023-05-01T06:21:46.690Z,100656.78
2023-05-01T06:23:09.990Z,100657.25
2023-05-01T06:24:32.986Z,100652.03
2023-05-01T06:25:55.929Z,100654.28
2023-05-01T06:27:19.073Z,100655.03
2023-05-01T06:28:42.063Z,100644.97
2023-05-01T06:30:06.815Z,100654.41
2023-05-01T06:31:29.657Z,100650.97
2023-05-01T06:32:51.582Z,100645.91
2023-05-01T06:34:14.385Z,100651.75
2023-05-01T06:35:37.301Z,100649.34
2023-05-01T06:37:00.146Z,100644.56
2023-05-01T06:38:24.475Z,100646.63
2023-05-01T06:39:49.108Z,100639.44
2023-05-01T06:41:11.895Z,100635.72
2023-05-01T06:42:36.254Z,100629.59
2023-05-01T06:43:58.637Z,100634.34
2023-05-01T06:45:21.586Z,100626.81
2023-05-01T06:46:44.441Z,100632.81
2023-05-01T06:48:07.363Z,100633.28
2023-05-01T06:49:30.196Z,100639.50
2023-05-01T06:50:52.947Z,100629.47
2023-05-01T06:52:14.754Z,100629.03
2023-05-01T06:53:37.624Z,100632.97
2023-05-01T06:55:00.438Z,100625.28
2023-05-01T06:56:23.217Z,100632.75
2023-05-01T06:57:47.275Z,100616.06
2023-05-01T06:59:10.334Z,100621.31
2023-05-01T07:00:33.271Z,100618.63
2023-05-01T07:01:56.093Z,100610.22
2023-05-01T07:03:18.138Z,100615.72
2023-05-01T07:04:41.794Z,100611.34
2023-05-01T07:06:05.104Z,100608.59
2023-05-01T07:07:27.950Z,100611.34
2023-05-01T07:08:51.966Z,100605.88
2023-05-01T07:10:14.850Z,100603.69
2023-05-01T07:11:38.290Z,100605.91
2023-05-01T07:13:02.780Z,100605.91
2023-05-01T07:14:25.701Z,100600.41
2023-05-01T07:15:49.083Z,100598.75
2023-05-01T07:17:11.908Z,100602.56
2023-05-01T07:18:35.585Z,100603.38
2023-05-01T07:19:57.747Z,100605.25
2023-05-01T07:21:20.733Z,100594.22
2023-05-01T07:22:42.635Z,100599.47
2023-05-01T07:24:06.278Z,100595.97
2023-05-01T07:25:29.001Z,100581.81
2023-05-01T07:26:51.890Z,100582.28
2023-05-01T07:28:18.038Z,100585.72
2023-05-01T07:29:40.978Z,100586.97
2023-05-01T07:31:04.359Z,100587.38
2023-05-01T07:32:26.440Z,100584.88
2023-05-01T07:33:50.015Z,100580.19
2023-05-01T07:35:13.854Z,100589.09
2023-05-01T07:36:36.619Z,100588.59
2023-05-01T07:37:59.561Z,100586.63
2023-05-01T07:39:22.311Z,100594.19
2023-05-01T07:40:44.426Z,100592.47
2023-05-01T07:42:07.512Z,100593.41
2023-05-01T07:43:31.653Z,100588.94
2023-05-01T07:44:54.506Z,100590.84
2023-05-01T07:46:17.510Z,100593.13
2023-05-01T07:47:40.763Z,100588.88
2023-05-01T07:49:04.222Z,100581.78
2023-05-01T07:50:27.261Z,100581.78
2023-05-01T07:51:50.112Z,100578.47
2023-05-01T07:53:12.946Z,100582.50
2023-05-01T07:54:35.837Z,100577.88
2023-05-01T07:56:06.079Z,100575.91
2023-05-01T07:57:28.873Z,100572.13
2023-05-01T07:58:52.937Z,100574.00
2023-05-01T08:00:16.930Z,100569.03
2023-05-01T08:01:39.825Z,100573.16
2023-05-01T08:03:03.109Z,100566.75
2023-05-01T08:04:26.030Z,100569.13
2023-05-01T08:05:47.928Z,100565.75
2023-05-01T08:07:10.717Z,100569.41
2023-05-01T08:08:33.532Z,100559.63
2023-05-01T08:09:59.206Z,100568.59
2023-05-01T08:11:22.926Z,100560.16
2023-05-01T08:12:46.002Z,100566.91
2023-05-01T08:14:10.670Z,100560.25
2023-05-01T08:15:33.534Z,100558.47
2023-05-01T08:16:56.304Z,100561.34
2023-05-01T08:18:21.292Z,100559.59
2023-05-01T08:19:45.155Z,100558.09
2023-05-01T08:21:07.889Z,100551.34
2023-05-01T08:22:31.323Z,100551.34
2023-05-01T08:23:56.944Z,100555.81
2023-05-01T08:25:19.335Z,100557.16
2023-05-01T08:26:42.219Z,100547.00
2023-05-01T08:28:05.465Z,100554.06
2023-05-01T08:29:29.844Z,100550.25
2023-05-01T08:30:52.607Z,100547.78
2023-05-01T08:32:15.416Z,100551.13
2023-05-01T08:33:38.224Z,100550.59
2023-05-01T08:35:01.002Z,100545.56
2023-05-01T08:36:24.215Z,100547.88
2023-05-01T08:37:47.229Z,100543.28
2023-05-01T08:39:10.049Z,100546.44
2023-05-01T08:40:36.986Z,100542.16
2023-05-01T08:42:00.524Z,100541.88
2023-05-01T08:43:24.247Z,100533.53
2023-05-01T08:44:50.971Z,100537.00
2023-05-01T08:46:16.745Z,100528.03
2023-05-01T08:47:41.097Z,100530.25
2023-05-01T08:49:06.815Z,100524.72
2023-05-01T08:50:30.246Z,100532.84
2023-05-01T08:51:56.630Z,100533.03
2023-05-01T08:53:21.153Z,100531.00
2023-05-01T08:54:45.616Z,100526.03
2023-05-01T08:56:13.645Z,100525.53
2023-05-01T08:57:37.990Z,100522.88
2023-05-01T08:59:03.297Z,100516.56
2023-05-01T09:00:28.242Z,100522.88
2023-05-01T09:01:52.310Z,100516.13
2023-05-01T09:03:15.487Z,100513.06
2023-05-01T09:04:39.895Z,100520.09
2023-05-01T09:06:04.187Z,100500.31
2023-05-01T09:07:27.283Z,100510.03
2023-05-01T09:08:50.402Z,100504.28
2023-05-01T09:10:12.842Z,100499.38
2023-05-01T09:11:36.473Z,100497.13
2023-05-01T09:13:03.027Z,100503.47
2023-05-01T09:14:24.978Z,100495.34
2023-05-01T09:15:49.199Z,100495.78
2023-05-01T09:17:12.974Z,100499.66
2023-05-01T09:18:36.710Z,100500.28
2023-05-01T09:19:59.313Z,100498.41
2023-05-01T09:21:22.421Z,100494.53
2023-05-01T09:22:45.482Z,100490.59
2023-05-01T09:24:08.890Z,100488.25
2023-05-01T09:25:31.128Z,100488.38
2023-05-01T09:26:54.251Z,100486.97
2023-05-01T09:28:17.261Z,100484.63
2023-05-01T09:29:41.406Z,100486.84
2023-05-01T09:31:21.921Z,100484.13
2023-05-01T09:32:45.082Z,100482.97
2023-05-01T09:34:08.363Z,100483.91
2023-05-01T09:35:32.830Z,100479.84
2023-05-01T09:36:56.056Z,100469.69
2023-05-01T09:38:20.418Z,100477.44
2023-05-01T09:39:43.217Z,100466.75
2023-05-01T09:41:06.462Z,100464.97
2023-05-01T09:42:30.617Z,100463.66
2023-05-01T09:43:55.817Z,100471.13
2023-05-01T09:45:19.687Z,100466.56
2023-05-01T09:46:45.204Z,100460.06
2023-05-01T09:48:12.240Z,100464.34
2023-05-01T09:49:49.705Z,100454.91
2023-05-01T09:51:23.187Z,100459.31
2023-05-01T09:52:52.398Z,100458.19
2023-05-01T09:54:19.454Z,100456.72
2023-05-01T09:55:42.222Z,100462.22
2023-05-01T09:57:05.485Z,100462.34
2023-05-01T09:58:28.936Z,100456.84
2023-05-01T10:00:08.114Z,100457.00
2023-05-01T10:01:41.135Z,100447.94
2023-05-01T10:03:14.531Z,100450.22
2023-05-01T10:04:37.327Z,100435.13
2023-05-01T10:06:02.008Z,100436.22
2023-05-01T10:07:25.126Z,100440.31
2023-05-01T10:08:49.379Z,100436.78
2023-05-01T10:10:19.651Z,100439.53
2023-05-01T10:11:49.320Z,100443.75
2023-05-01T10:13:16.268Z,100444.19
2023-05-01T10:14:51.862Z,100439.03
2023-05-01T10:16:29.767Z,100434.50
2023-05-01T10:17:52.934Z,100434.13
2023-05-01T10:19:18.064Z,100434.91
2023-05-01T10:20:41.210Z,100439.84
2023-05-01T10:22:03.955Z,100439.00
2023-05-01T10:23:26.802Z,100434.44
2023-05-01T10:24:50.138Z,100428.31
2023-05-01T10:26:14.649Z,100432.53
2023-05-01T10:27:39.684Z,100437.59
2023-05-01T10:29:03.411Z,100421.00
2023-05-01T10:30:27.705Z,100425.47
2023-05-01T10:31:50.631Z,100428.13
2023-05-01T10:33:14.399Z,100423.09
2023-05-01T10:34:43.290Z,100419.97
2023-05-01T10:36:10.717Z,100415.78
2023-05-01T10:37:38.791Z,100415.41
2023-05-01T10:39:01.848Z,100405.13
2023-05-01T10:40:49.901Z,100408.53
2023-05-01T10:42:14.585Z,100408.78
2023-05-01T10:43:37.340Z,100408.13
2023-05-01T10:45:29.118Z,100407.88
2023-05-01T10:46:52.155Z,100408.69
2023-05-01T10:48:55.911Z,100412.47
2023-05-01T10:50:18.708Z,100411.72
2023-05-01T10:51:59.865Z,100399.59
2023-05-01T10:53:23.751Z,100400.13
2023-05-01T10:54:46.559Z,100393.78
2023-05-01T10:56:46.488Z,100390.34
2023-05-01T10:58:09.526Z,100389.75
2023-05-01T11:00:05.920Z,100386.22
2023-05-01T11:01:33.550Z,100379.97
2023-05-01T11:03:29.584Z,100383.63
2023-05-01T11:04:54.304Z,100381.31
2023-05-01T11:06:16.519Z,100384.47
2023-05-01T11:07:40.733Z,100384.25
2023-05-01T11:09:02.933Z,100377.56
2023-05-01T11:10:28.723Z,100371.72
2023-05-01T11:11:51.965Z,100378.69
2023-05-01T11:13:14.981Z,100376.31
2023-05-01T11:15:04.083Z,100375.63
2023-05-01T11:16:42.088Z,100370.25
2023-05-01T11:18:06.519Z,100374.09
2023-05-01T11:19:48.236Z,100369.97
2023-05-01T11:21:11.268Z,100368.53
2023-05-01T11:22:33.193Z,100361.56
2023-05-01T11:23:56.036Z,100370.03
2023-05-01T11:25:20.518Z,100359.34
2023-05-01T11:26:44.493Z,100361.59
2023-05-01T11:28:09.597Z,100356.84
2023-05-01T11:29:33.758Z,100356.69
2023-05-01T11:30:56.693Z,100347.97
2023-05-01T11:32:23.927Z,100362.13
2023-05-01T11:33:46.886Z,100353.31
2023-05-01T11:35:16.654Z,100337.81
2023-05-01T11:36:49.496Z,100339.09
2023-05-01T11:38:19.336Z,100335.94
2023-05-01T11:39:52.018Z,100343.13
2023-05-01T11:41:15.380Z,100335.91
2023-05-01T11:42:38.194Z,100334.97
2023-05-01T11:44:02.348Z,100326.78
2023-05-01T11:45:24.377Z,100334.31
2023-05-01T11:46:47.159Z,100327.41
2023-05-01T11:48:15.918Z,100326.63
2023-05-01T11:49:38.972Z,100319.53
2023-05-01T11:51:01.779Z,100309.75
2023-05-01T11:52:23.572Z,100318.94
2023-05-01T11:54:00.620Z,100312.06
2023-05-01T11:55:32.136Z,100314.22
2023-05-01T11:57:01.624Z,100312.06
2023-05-01T11:58:36.172Z,100305.28
2023-05-01T12:00:00.359Z,100307.19
2023-05-01T12:01:23.307Z,100303.00
2023-05-01T12:03:03.219Z,100304.78
2023-05-01T12:04:32.097Z,100312.97
2023-05-01T12:05:55.367Z,100298.81
2023-05-01T12:07:21.692Z,100302.97
2023-05-01T12:08:50.327Z,100298.97
2023-05-01T12:10:13.211Z,100299.38
2023-05-01T12:11:36.362Z,100308.38
2023-05-01T12:12:59.351Z,100293.75
2023-05-01T12:14:24.315Z,100296.81
2023-05-01T12:15:51.570Z,100296.75
2023-05-01T12:17:14.456Z,100294.50
2023-05-01T12:18:37.799Z,100290.63
2023-05-01T12:20:00.736Z,100293.81
2023-05-01T12:21:25.231Z,100291.00
2023-05-01T12:22:50.418Z,100290.97
2023-05-01T12:24:15.034Z,100294.47
2023-05-01T12:25:39.460Z,100287.69
2023-05-01T12:27:03.468Z,100283.22
2023-05-01T12:28:27.623Z,100284.09
2023-05-01T12:29:50.537Z,100290.47
2023-05-01T12:31:14.125Z,100286.47
2023-05-01T12:32:36.983Z,100283.28
2023-05-01T12:34:01.813Z,100287.94
2023-05-01T12:35:29.774Z,100285.88
2023-05-01T12:36:55.023Z,100279.84
2023-05-01T12:38:20.003Z,100285.22
2023-05-01T12:39:45.473Z,100282.59
2023-05-01T12:41:09.499Z,100280.03
2023-05-01T12:42:32.513Z,100273.53
2023-05-01T12:43:55.470Z,100284.13
2023-05-01T12:45:18.315Z,100261.19
2023-05-01T12:46:42.862Z,100271.56
2023-05-01T12:48:11.275Z,100268.00
2023-05-01T12:49:36.929Z,100273.41
2023-05-01T12:50:59.891Z,100264.78
2023-05-01T12:52:27.901Z,100264.94
2023-05-01T12:53:51.669Z,100267.09
2023-05-01T12:55:14.689Z,100264.44
2023-05-01T12:56:37.475Z,100261.34
2023-05-01T12:58:00.360Z,100254.91
2023-05-01T12:59:24.293Z,100263.13
2023-05-01T13:00:49.125Z,100251.59
2023-05-01T13:02:16.053Z,100251.78
2023-05-01T13:03:44.990Z,100256.47
2023-05-01T13:05:07.947Z,100259.09
2023-05-01T13:06:34.532Z,100250.03
2023-05-01T13:07:58.959Z,100253.31
2023-05-01T13:09:21.966Z,100251.97
2023-05-01T13:10:44.756Z,100250.66
2023-05-01T13:12:09.775Z,100261.66
2023-05-01T13:13:35.860Z,100249.69
2023-05-01T13:14:59.448Z,100254.19
2023-05-01T13:16:24.650Z,100260.34
2023-05-01T13:17:49.173Z,100250.06
2023-05-01T13:19:11.942Z,100251.13
2023-05-01T13:20:36.531Z,100245.63
2023-05-01T13:21:59.884Z,100246.94
2023-05-01T13:23:22.836Z,100239.97
2023-05-01T13:24:45.747Z,100239.38
2023-05-01T13:26:10.567Z,100237.56
2023-05-01T13:27:33.627Z,100241.22
2023-05-01T13:28:57.305Z,100235.19
2023-05-01T13:30:22.622Z,100235.78
2023-05-01T13:31:46.633Z,100240.34
2023-05-01T13:33:11.874Z,100247.56
2023-05-01T13:34:37.426Z,100235.81
2023-05-01T13:36:00.846Z,100240.03
2023-05-01T13:37:26.476Z,100238.56
2023-05-01T13:38:51.448Z,100230.91
2023-05-01T13:40:15.177Z,100237.53
2023-05-01T13:41:42.328Z,100241.81
2023-05-01T13:43:05.101Z,100236.03
2023-05-01T13:44:29.143Z,100234.78
2023-05-01T13:45:52.002Z,100231.66
2023-05-01T13:47:17.626Z,100228.75
2023-05-01T13:48:42.271Z,100229.19
2023-05-01T13:50:05.368Z,100224.09
2023-05-01T13:51:28.255Z,100225.50
2023-05-01T13:52:51.020Z,100229.13
2023-05-01T13:54:13.979Z,100233.38
2023-05-01T13:55:40.884Z,100223.19
2023-05-01T13:57:03.706Z,100221.31
2023-05-01T13:58:26.728Z,100225.13
2023-05-01T13:59:49.519Z,100226.25
2023-05-01T14:01:16.306Z,100225.50
2023-05-01T14:02:45.284Z,100222.53
2023-05-01T14:04:11.788Z,100218.09
2023-05-01T14:05:34.816Z,100216.34
2023-05-01T14:06:59.040Z,100219.19
2023-05-01T14:08:22.550Z,100216.72
2023-05-01T14:09:45.701Z,100213.06
2023-05-01T14:11:10.179Z,100217.25
2023-05-01T14:12:33.928Z,100213.13
2023-05-01T14:14:00.756Z,100207.34
2023-05-01T14:15:24.292Z,100210.47
2023-05-01T14:16:48.851Z,100208.13
2023-05-01T14:18:12.678Z,100213.81
2023-05-01T14:19:37.450Z,100210.09
2023-05-01T14:21:00.331Z,100208.84
2023-05-01T14:22:23.198Z,100212.06
2023-05-01T14:23:46.146Z,100210.59
2023-05-01T14:25:24.107Z,100204.72
2023-05-01T14:26:49.302Z,100212.56
2023-05-01T14:28:12.535Z,100212.34
2023-05-01T14:29:35.622Z,100218.91
2023-05-01T14:30:58.694Z,100221.72
2023-05-01T14:32:21.487Z,100219.91
2023-05-01T14:33:44.666Z,100217.63
2023-05-01T14:35:10.960Z,100214.59
2023-05-01T14:36:34.092Z,100214.94
2023-05-01T14:37:57.194Z,100207.28
2023-05-01T14:39:20.152Z,100210.84
2023-05-01T14:40:43.767Z,100212.09
2023-05-01T14:42:06.605Z,100217.84
2023-05-01T14:43:29.447Z,100216.91
2023-05-01T14:44:52.302Z,100221.78
2023-05-01T14:46:16.485Z,100218.88
2023-05-01T14:47:41.589Z,100216.13
2023-05-01T14:49:04.441Z,100213.09
2023-05-01T14:50:28.685Z,100213.69
2023-05-01T14:51:52.641Z,100212.44
2023-05-01T14:53:15.548Z,100207.94
2023-05-01T14:54:46.457Z,100211.09
2023-05-01T14:56:09.457Z,100212.75
2023-05-01T14:57:32.193Z,100210.59
2023-05-01T14:58:55.149Z,100211.59
2023-05-01T15:00:18.467Z,100215.22
2023-05-01T15:01:41.483Z,100214.69